createdAt,value
2018-06-04T00:00:01.256Z,2.75
2018-06-04T00:02:29.682Z,2.85
2018-06-04T00:04:58.088Z,2.30
2018-06-04T00:07:26.536Z,2.62
2018-06-04T00:09:54.951Z,2.30
2018-06-04T00:12:23.400Z,2.60
2018-06-04T00:14:51.821Z,2.50
2018-06-04T00:17:20.258Z,2.08
2018-06-04T00:19:48.645Z,2.22
2018-06-04T00:22:17.077Z,2.40
2018-06-04T00:24:45.476Z,2.47
2018-06-04T00:27:13.929Z,2.60
2018-06-04T00:29:42.354Z,2.22
2018-06-04T00:32:10.791Z,2.05
2018-06-04T00:34:39.197Z,2.40
2018-06-04T00:37:07.638Z,2.77
2018-06-04T00:39:36.028Z,2.00
2018-06-04T00:42:04.432Z,2.30
2018-06-04T00:44:32.841Z,2.25
2018-06-04T00:47:01.297Z,2.52
2018-06-04T00:49:29.743Z,3.33
2018-06-04T00:51:58.146Z,2.50
2018-06-04T00:54:26.597Z,2.10
2018-06-04T00:56:55.013Z,1.77
2018-06-04T00:59:23.439Z,2.00
2018-06-04T01:01:52.693Z,2.40
2018-06-04T01:04:21.133Z,2.17
2018-06-04T01:06:49.557Z,1.80
2018-06-04T01:09:18.009Z,2.33
2018-06-04T01:11:46.425Z,2.67
2018-06-04T01:14:14.860Z,2.65
2018-06-04T01:16:43.250Z,2.50
2018-06-04T01:19:11.668Z,2.45
2018-06-04T01:21:40.158Z,2.22
2018-06-04T01:24:08.591Z,2.42
2018-06-04T01:26:37.405Z,2.52
2018-06-04T01:29:05.846Z,2.05
2018-06-04T01:31:34.253Z,2.10
2018-06-04T01:34:02.708Z,2.08
2018-06-04T01:36:31.133Z,1.87
2018-06-04T01:38:59.550Z,2.10
2018-06-04T01:41:27.962Z,1.90
2018-06-04T01:43:56.401Z,2.47
2018-06-04T01:46:24.797Z,2.12
2018-06-04T01:48:53.305Z,2.15
2018-06-04T01:51:21.772Z,2.40
2018-06-04T01:53:50.297Z,2.60
2018-06-04T01:56:18.700Z,2.40
2018-06-04T01:58:47.149Z,2.52
2018-06-04T02:01:15.565Z,2.77
2018-06-04T02:03:44.000Z,2.22
2018-06-04T02:06:12.393Z,2.80
2018-06-04T02:08:40.804Z,2.60
2018-06-04T02:11:09.256Z,2.33
2018-06-04T02:13:37.713Z,2.47
2018-06-04T02:16:06.166Z,2.10
2018-06-04T02:18:34.565Z,2.35
2018-06-04T02:21:03.078Z,2.85
2018-06-04T02:23:31.473Z,2.65
2018-06-04T02:25:59.913Z,2.70
2018-06-04T02:28:28.321Z,2.40
2018-06-04T02:30:56.762Z,2.40
2018-06-04T02:33:25.165Z,2.30
2018-06-04T02:35:53.595Z,2.30
2018-06-04T02:38:22.040Z,2.50
2018-06-04T02:40:50.458Z,2.10
2018-06-04T02:43:18.867Z,2.25
2018-06-04T02:45:47.001Z,2.42
2018-06-04T02:48:15.400Z,2.47
2018-06-04T02:50:43.553Z,2.65
2018-06-04T02:53:12.005Z,2.20
2018-06-04T02:55:40.425Z,2.70
2018-06-04T02:58:08.528Z,2.55
2018-06-04T03:00:37.073Z,2.47
2018-06-04T03:03:05.498Z,2.52
2018-06-04T03:05:33.937Z,2.95
2018-06-04T03:08:02.348Z,2.42
2018-06-04T03:10:30.765Z,2.08
2018-06-04T03:12:59.173Z,2.20
2018-06-04T03:15:27.625Z,2.30
2018-06-04T03:17:56.021Z,2.35
2018-06-04T03:20:24.469Z,2.35
2018-06-04T03:22:52.934Z,2.20
2018-06-04T03:25:21.401Z,2.45
2018-06-04T03:27:49.794Z,1.95
2018-06-04T03:30:18.225Z,2.45
2018-06-04T03:32:46.637Z,1.87
2018-06-04T03:35:15.037Z,1.85
2018-06-04T03:37:43.481Z,2.30
2018-06-04T03:40:11.869Z,2.30
2018-06-04T03:42:40.308Z,1.95
2018-06-04T03:45:08.753Z,2.50
2018-06-04T03:47:37.173Z,2.55
2018-06-04T03:50:05.615Z,2.27
2018-06-04T03:52:34.037Z,2.37
2018-06-04T03:55:02.508Z,2.17
2018-06-04T03:57:30.925Z,2.40
2018-06-04T03:59:59.314Z,2.20
2018-06-04T04:02:27.737Z,2.30
2018-06-04T04:04:56.141Z,2.30
2018-06-04T04:07:24.545Z,2.27
2018-06-04T04:09:52.955Z,2.27
2018-06-04T04:12:21.410Z,2.40
2018-06-04T04:14:49.817Z,2.62
2018-06-04T04:17:18.245Z,2.30
2018-06-04T04:19:46.687Z,2.33
2018-06-04T04:22:15.101Z,3.33
2018-06-04T04:24:43.535Z,2.80
2018-06-04T04:27:11.964Z,2.60
2018-06-04T04:29:40.373Z,2.40
2018-06-04T04:32:08.822Z,2.15
2018-06-04T04:34:37.225Z,3.20
2018-06-04T04:37:05.777Z,3.08
2018-06-04T04:39:34.165Z,3.15
2018-06-04T04:42:02.654Z,2.65
2018-06-04T04:44:31.091Z,2.70
2018-06-04T04:46:59.510Z,3.35
2018-06-04T04:49:27.971Z,3.00
2018-06-04T04:51:56.397Z,3.20
2018-06-04T04:54:24.849Z,3.42
2018-06-04T04:56:53.257Z,3.65
2018-06-04T04:59:21.710Z,4.03
2018-06-04T05:01:50.145Z,3.80
2018-06-04T05:04:18.632Z,3.27
2018-06-04T05:06:47.045Z,3.92
2018-06-04T05:09:15.465Z,3.65
2018-06-04T05:11:43.877Z,4.10
2018-06-04T05:14:12.400Z,3.60
2018-06-04T05:16:40.805Z,3.95
2018-06-04T05:19:09.277Z,3.67
2018-06-04T05:21:37.404Z,3.52
2018-06-04T05:24:05.845Z,4.35
2018-06-04T05:26:34.465Z,3.70
2018-06-04T05:29:02.933Z,3.55
2018-06-04T05:31:31.359Z,3.40
2018-06-04T05:33:59.800Z,3.75
2018-06-04T05:36:28.189Z,4.25
2018-06-04T05:38:56.622Z,4.15
2018-06-04T05:41:25.153Z,4.00
2018-06-04T05:43:53.612Z,3.77
2018-06-04T05:46:22.020Z,3.17
2018-06-04T05:48:50.479Z,3.70
2018-06-04T05:51:18.874Z,4.20
2018-06-04T05:53:47.038Z,4.17
2018-06-04T05:56:15.492Z,3.70
2018-06-04T05:58:44.015Z,3.55
2018-06-04T06:01:12.483Z,3.72
2018-06-04T06:03:40.910Z,4.03
2018-06-04T06:06:09.312Z,3.80
2018-06-04T06:08:37.752Z,4.15
2018-06-04T06:11:06.366Z,4.17
2018-06-04T06:13:34.865Z,3.83
2018-06-04T06:16:03.321Z,3.67
2018-06-04T06:18:31.753Z,3.45
2018-06-04T06:21:00.165Z,3.58
2018-06-04T06:23:28.577Z,2.98
2018-06-04T06:25:56.961Z,2.77
2018-06-04T06:28:25.545Z,2.77
2018-06-04T06:30:54.054Z,3.20
2018-06-04T06:33:22.428Z,3.17
2018-06-04T06:35:50.945Z,3.08
2018-06-04T06:38:19.336Z,2.47
2018-06-04T06:40:47.466Z,2.55
2018-06-04T06:43:15.885Z,2.17
2018-06-04T06:45:44.329Z,2.40
2018-06-04T06:48:12.730Z,2.65
2018-06-04T06:50:41.187Z,2.60
2018-06-04T06:53:09.606Z,2.85
2018-06-04T06:55:38.071Z,2.42
2018-06-04T06:58:06.534Z,2.27
2018-06-04T07:00:35.063Z,1.92
2018-06-04T07:03:03.478Z,2.20
2018-06-04T07:05:31.911Z,2.33
2018-06-04T07:08:00.325Z,2.90
2018-06-04T07:10:28.736Z,2.30
2018-06-04T07:12:57.130Z,2.08
2018-06-04T07:15:25.565Z,2.47
2018-06-04T07:17:53.950Z,2.47
2018-06-04T07:20:22.404Z,2.40
2018-06-04T07:22:50.823Z,2.10
2018-06-04T07:25:19.289Z,2.50
2018-06-04T07:27:47.773Z,1.80
2018-06-04T07:30:16.193Z,2.05
2018-06-04T07:32:44.569Z,2.20
2018-06-04T07:35:12.980Z,2.05
2018-06-04T07:37:41.399Z,2.00
2018-06-04T07:40:09.844Z,1.60
2018-06-04T07:42:38.329Z,1.72
2018-06-04T07:45:06.829Z,2.02
2018-06-04T07:47:35.242Z,1.95
2018-06-04T07:50:03.702Z,1.80
2018-06-04T07:52:32.182Z,2.25
2018-06-04T07:55:00.667Z,1.70
2018-06-04T07:57:29.109Z,1.92
2018-06-04T07:59:57.519Z,1.60
2018-06-04T08:02:25.931Z,1.70
2018-06-04T08:04:54.342Z,1.47
2018-06-04T08:07:22.757Z,1.70
2018-06-04T08:09:51.167Z,1.62
2018-06-04T08:12:19.601Z,2.00
2018-06-04T08:14:48.109Z,2.10
2018-06-04T08:17:16.557Z,1.80
2018-06-04T08:19:44.968Z,1.75
2018-06-04T08:22:13.412Z,1.60
2018-06-04T08:24:41.803Z,1.35
2018-06-04T08:27:10.238Z,1.72
2018-06-04T08:29:38.642Z,1.67
2018-06-04T08:32:07.109Z,1.62
2018-06-04T08:34:35.510Z,1.40
2018-06-04T08:37:03.931Z,1.60
2018-06-04T08:39:32.321Z,1.50
2018-06-04T08:42:00.749Z,1.75
2018-06-04T08:44:29.137Z,1.95
2018-06-04T08:46:57.610Z,1.90
2018-06-04T08:49:26.019Z,1.72
2018-06-04T08:51:54.525Z,1.60
2018-06-04T08:54:23.000Z,1.52
2018-06-04T08:56:51.451Z,1.40
2018-06-04T08:59:19.869Z,1.40
2018-06-04T09:01:48.334Z,1.37
2018-06-04T09:04:16.725Z,1.80
2018-06-04T09:06:45.173Z,1.67
2018-06-04T09:09:13.600Z,1.77
2018-06-04T09:11:41.996Z,1.70
2018-06-04T09:14:10.448Z,1.92
2018-06-04T09:16:38.857Z,1.30
2018-06-04T09:19:07.462Z,1.50
2018-06-04T09:21:35.894Z,1.22
2018-06-04T09:24:04.365Z,1.60
2018-06-04T09:26:32.764Z,1.45
2018-06-04T09:29:01.185Z,1.55
2018-06-04T09:31:29.573Z,1.15
2018-06-04T09:33:57.997Z,1.40
2018-06-04T09:36:26.441Z,1.40
2018-06-04T09:38:54.887Z,1.72
2018-06-04T09:41:23.338Z,1.62
2018-06-04T09:43:51.804Z,1.30
2018-06-04T09:46:19.911Z,1.52
2018-06-04T09:48:48.384Z,1.10
2018-06-04T09:51:16.777Z,1.80
2018-06-04T09:53:45.234Z,1.65
2018-06-04T09:56:13.650Z,1.35
2018-06-04T09:58:42.078Z,1.40
2018-06-04T10:01:10.496Z,1.15
2018-06-04T10:03:38.949Z,1.05
2018-06-04T10:06:07.369Z,1.42
2018-06-04T10:08:35.825Z,1.60
2018-06-04T10:11:04.254Z,1.50
2018-06-04T10:13:32.694Z,1.47
2018-06-04T10:16:01.158Z,1.30
2018-06-04T10:18:29.588Z,1.50
2018-06-04T10:20:58.031Z,1.57
2018-06-04T10:23:26.581Z,1.30
2018-06-04T10:25:54.993Z,1.25
2018-06-04T10:28:23.428Z,1.17
2018-06-04T10:30:51.873Z,1.32
2018-06-04T10:33:20.286Z,1.10
2018-06-04T10:35:48.770Z,1.80
2018-06-04T10:38:17.186Z,1.40
2018-06-04T10:40:45.653Z,1.72
2018-06-04T10:43:14.073Z,1.65
2018-06-04T10:45:42.507Z,1.87
2018-06-04T10:48:10.917Z,1.50
2018-06-04T10:50:39.371Z,1.70
2018-06-04T10:53:07.785Z,1.87
2018-06-04T10:55:36.240Z,1.30
2018-06-04T10:58:04.416Z,1.55
2018-06-04T11:00:32.837Z,1.60
2018-06-04T11:03:01.238Z,2.12
2018-06-04T11:05:29.682Z,1.75
2018-06-04T11:07:58.089Z,1.70
2018-06-04T11:10:26.556Z,1.70
2018-06-04T11:12:54.961Z,1.72
2018-06-04T11:15:23.413Z,1.77
2018-06-04T11:17:51.840Z,1.60
2018-06-04T11:20:20.273Z,1.50
2018-06-04T11:22:48.709Z,1.65
2018-06-04T11:25:17.139Z,1.60
2018-06-04T11:27:45.573Z,1.50
2018-06-04T11:30:14.017Z,2.12
2018-06-04T11:32:42.434Z,1.98
2018-06-04T11:35:10.877Z,2.02
2018-06-04T11:37:39.278Z,1.80
2018-06-04T11:40:07.727Z,1.80
2018-06-04T11:42:36.296Z,1.50
2018-06-04T11:45:04.853Z,1.87
2018-06-04T11:47:33.254Z,2.00
2018-06-04T11:50:01.694Z,1.50
2018-06-04T11:52:30.117Z,1.70
2018-06-04T11:54:58.558Z,1.77
2018-06-04T11:57:27.009Z,2.08
2018-06-04T11:59:55.404Z,2.10
2018-06-04T12:02:23.848Z,1.67
2018-06-04T12:04:52.256Z,2.25
2018-06-04T12:07:20.679Z,2.10
2018-06-04T12:09:49.085Z,1.65
2018-06-04T12:12:17.524Z,2.15
2018-06-04T12:14:46.126Z,1.77
2018-06-04T12:17:14.793Z,1.77
2018-06-04T12:19:43.205Z,1.92
2018-06-04T12:22:11.652Z,1.98
2018-06-04T12:24:39.762Z,1.95
2018-06-04T12:27:08.261Z,1.70
2018-06-04T12:29:36.666Z,1.77
2018-06-04T12:32:05.479Z,2.17
2018-06-04T12:34:33.893Z,2.20
2018-06-04T12:37:02.376Z,1.85
2018-06-04T12:39:30.777Z,2.35
2018-06-04T12:41:58.925Z,2.10
2018-06-04T12:44:27.340Z,1.85
2018-06-04T12:46:55.799Z,2.30
2018-06-04T12:49:24.217Z,1.70
2018-06-04T12:51:52.670Z,1.90
2018-06-04T12:54:21.152Z,1.95
2018-06-04T12:56:49.629Z,2.30
2018-06-04T12:59:18.061Z,1.50
2018-06-04T13:01:46.506Z,2.08
2018-06-04T13:04:14.925Z,1.77
2018-06-04T13:06:43.370Z,1.50
2018-06-04T13:09:11.782Z,1.77
2018-06-04T13:11:40.237Z,2.00
2018-06-04T13:14:08.649Z,2.00
2018-06-04T13:16:37.069Z,2.42
2018-06-04T13:19:05.566Z,1.90
2018-06-04T13:21:34.019Z,1.80
2018-06-04T13:24:02.433Z,1.77
2018-06-04T13:26:30.859Z,1.67
2018-06-04T13:28:59.293Z,1.77
2018-06-04T13:31:27.780Z,2.10
2018-06-04T13:33:56.228Z,2.00
2018-06-04T13:36:24.644Z,2.55
2018-06-04T13:38:53.086Z,2.08
2018-06-04T13:41:21.573Z,2.37
2018-06-04T13:43:50.019Z,1.70
2018-06-04T13:46:18.541Z,1.80
2018-06-04T13:48:47.149Z,2.17
2018-06-04T13:51:15.612Z,2.00
2018-06-04T13:53:44.088Z,1.67
2018-06-04T13:56:12.631Z,2.02
2018-06-04T13:58:41.011Z,1.57
2018-06-04T14:01:09.436Z,1.67
2018-06-04T14:03:37.875Z,1.60
2018-06-04T14:06:06.552Z,2.08
2018-06-04T14:08:35.095Z,2.08
2018-06-04T14:11:03.521Z,2.02
2018-06-04T14:13:31.933Z,2.50
2018-06-04T14:16:00.373Z,2.65
2018-06-04T14:18:28.862Z,1.98
2018-06-04T14:20:56.966Z,1.98
2018-06-04T14:23:25.517Z,1.87
2018-06-04T14:25:53.699Z,1.77
2018-06-04T14:28:22.130Z,2.05
2018-06-04T14:30:50.813Z,1.90
2018-06-04T14:33:19.244Z,1.80
2018-06-04T14:35:47.888Z,1.92
2018-06-04T14:38:16.388Z,2.17
2018-06-04T14:40:44.785Z,2.05
2018-06-04T14:43:13.332Z,2.15
2018-06-04T14:45:41.790Z,1.90
2018-06-04T14:48:10.281Z,2.10
2018-06-04T14:50:38.709Z,1.90
2018-06-04T14:53:07.125Z,2.42
2018-06-04T14:55:35.572Z,2.22
2018-06-04T14:58:04.038Z,2.50
2018-06-04T15:00:32.503Z,1.75
2018-06-04T15:03:00.913Z,2.00
2018-06-04T15:05:29.349Z,2.10
2018-06-04T15:07:57.752Z,1.98
2018-06-04T15:10:26.189Z,2.17
2018-06-04T15:12:54.602Z,2.17
2018-06-04T15:15:23.164Z,1.80
2018-06-04T15:17:51.594Z,1.80
2018-06-04T15:20:20.054Z,2.08
2018-06-04T15:22:48.474Z,1.70
2018-06-04T15:25:16.909Z,1.75
2018-06-04T15:27:45.335Z,1.75
2018-06-04T15:30:13.769Z,1.67
2018-06-04T15:32:42.223Z,1.87
2018-06-04T15:35:10.629Z,2.00
2018-06-04T15:37:39.044Z,2.20
2018-06-04T15:40:07.497Z,2.30
2018-06-04T15:42:35.911Z,2.05
2018-06-04T15:45:04.422Z,2.08
2018-06-04T15:47:32.848Z,2.45
2018-06-04T15:50:01.281Z,1.87
2018-06-04T15:52:29.697Z,2.37
2018-06-04T15:54:58.162Z,2.30
2018-06-04T15:57:26.567Z,1.82
2018-06-04T15:59:55.004Z,2.25
2018-06-04T16:02:23.483Z,2.00
2018-06-04T16:04:51.932Z,2.08
2018-06-04T16:07:20.342Z,2.55
2018-06-04T16:09:48.797Z,2.42
2018-06-04T16:12:17.449Z,2.12
2018-06-04T16:14:45.850Z,2.37
2018-06-04T16:17:14.291Z,2.02
2018-06-04T16:19:42.693Z,2.33
2018-06-04T16:22:11.223Z,2.62
2018-06-04T16:24:39.620Z,2.90
2018-06-04T16:27:08.070Z,2.27
2018-06-04T16:29:36.520Z,2.25
2018-06-04T16:32:04.979Z,2.75
2018-06-04T16:34:33.406Z,2.20
2018-06-04T16:37:01.861Z,2.15
2018-06-04T16:39:30.297Z,2.15
2018-06-04T16:41:58.724Z,2.08
2018-06-04T16:44:27.193Z,2.08
2018-06-04T16:46:55.639Z,2.12
2018-06-04T16:49:24.029Z,1.87
2018-06-04T16:51:52.464Z,2.12
2018-06-04T16:54:20.900Z,2.35
2018-06-04T16:56:49.330Z,2.10
2018-06-04T16:59:17.760Z,1.80
2018-06-04T17:01:46.388Z,1.82
2018-06-04T17:04:14.784Z,2.08
2018-06-04T17:06:43.205Z,1.90
2018-06-04T17:09:11.882Z,1.70
2018-06-04T17:11:40.333Z,1.57
2018-06-04T17:14:08.732Z,1.90
2018-06-04T17:16:37.213Z,2.02
2018-06-04T17:19:05.665Z,1.70
2018-06-04T17:21:34.070Z,1.67
2018-06-04T17:24:02.529Z,2.05
2018-06-04T17:26:30.946Z,1.90
2018-06-04T17:28:59.385Z,1.98
2018-06-04T17:31:27.795Z,2.20
2018-06-04T17:33:56.481Z,1.80
2018-06-04T17:36:24.981Z,2.17
2018-06-04T17:38:53.413Z,1.92
2018-06-04T17:41:21.829Z,2.25
2018-06-04T17:43:50.297Z,1.70
2018-06-04T17:46:18.744Z,2.10
2018-06-04T17:48:47.204Z,1.72
2018-06-04T17:51:15.592Z,2.00
2018-06-04T17:53:44.045Z,1.80
2018-06-04T17:56:12.481Z,1.85
2018-06-04T17:58:40.939Z,2.37
2018-06-04T18:01:09.409Z,2.10
2018-06-04T18:03:37.900Z,2.25
2018-06-04T18:06:06.313Z,2.47
2018-06-04T18:08:34.770Z,2.08
2018-06-04T18:11:03.198Z,2.65
2018-06-04T18:13:31.733Z,2.37
2018-06-04T18:16:00.134Z,2.45
2018-06-04T18:18:28.561Z,2.25
2018-06-04T18:20:57.075Z,2.33
2018-06-04T18:23:25.505Z,2.10
2018-06-04T18:25:54.031Z,2.25
2018-06-04T18:28:22.437Z,2.70
2018-06-04T18:30:50.867Z,2.58
2018-06-04T18:33:19.297Z,2.83
2018-06-04T18:35:47.717Z,3.67
2018-06-04T18:38:16.133Z,2.85
2018-06-04T18:40:44.575Z,2.60
2018-06-04T18:43:12.984Z,2.27
2018-06-04T18:45:41.430Z,2.60
2018-06-04T18:48:09.852Z,2.50
2018-06-04T18:50:38.278Z,2.15
2018-06-04T18:53:06.685Z,2.80
2018-06-04T18:55:35.171Z,3.15
2018-06-04T18:58:03.619Z,2.80
2018-06-04T19:00:32.065Z,2.87
2018-06-04T19:03:00.492Z,3.37
2018-06-04T19:05:28.945Z,3.10
2018-06-04T19:07:57.402Z,2.92
2018-06-04T19:10:25.871Z,2.85
2018-06-04T19:12:54.260Z,3.10
2018-06-04T19:15:24.113Z,3.37
2018-06-04T19:17:52.521Z,3.52
2018-06-04T19:20:20.961Z,2.92
2018-06-04T19:22:49.394Z,2.87
2018-06-04T19:25:17.892Z,3.27
2018-06-04T19:27:46.009Z,3.72
2018-06-04T19:30:14.441Z,2.92
2018-06-04T19:32:42.956Z,3.05
2018-06-04T19:35:11.393Z,4.50
2018-06-04T19:37:39.857Z,3.42
2018-06-04T19:40:08.317Z,3.42
2018-06-04T19:42:36.761Z,3.35
2018-06-04T19:45:05.196Z,3.45
2018-06-04T19:47:33.617Z,3.20
2018-06-04T19:50:02.021Z,3.50
2018-06-04T19:52:30.457Z,3.42
2018-06-04T19:54:58.932Z,4.05
2018-06-04T19:57:27.415Z,3.72
2018-06-04T19:59:55.894Z,3.27
2018-06-04T20:02:24.329Z,3.50
2018-06-04T20:04:52.798Z,3.60
2018-06-04T20:07:21.192Z,3.83
2018-06-04T20:09:49.294Z,3.62
2018-06-04T20:12:17.745Z,3.90
2018-06-04T20:14:46.152Z,4.20
2018-06-04T20:17:14.576Z,3.42
2018-06-04T20:19:43.069Z,4.95
2018-06-04T20:22:11.485Z,3.87
2018-06-04T20:24:39.921Z,3.80
2018-06-04T20:27:08.076Z,4.25
2018-06-04T20:29:36.509Z,3.65
2018-06-04T20:32:04.921Z,3.58
2018-06-04T20:34:33.361Z,3.72
2018-06-04T20:37:01.814Z,4.42
2018-06-04T20:39:30.260Z,3.70
2018-06-04T20:41:58.705Z,4.05
2018-06-04T20:44:27.186Z,3.70
2018-06-04T20:46:55.698Z,4.05
2018-06-04T20:49:24.125Z,3.75
2018-06-04T20:51:52.562Z,4.58
2018-06-04T20:54:20.714Z,5.47
2018-06-04T20:56:49.497Z,4.47
2018-06-04T20:59:17.951Z,4.55
2018-06-04T21:01:46.353Z,4.40
2018-06-04T21:04:14.804Z,4.95
2018-06-04T21:06:43.255Z,4.22
2018-06-04T21:09:11.848Z,4.42
2018-06-04T21:11:40.281Z,4.28
2018-06-04T21:14:08.727Z,4.47
2018-06-04T21:16:37.181Z,5.00
2018-06-04T21:19:05.605Z,4.87
2018-06-04T21:21:34.001Z,5.42
2018-06-04T21:24:02.438Z,5.45
2018-06-04T21:26:30.916Z,4.60
2018-06-04T21:28:59.351Z,4.83
2018-06-04T21:31:27.755Z,4.87
2018-06-04T21:33:56.189Z,4.42
2018-06-04T21:36:24.595Z,4.62
2018-06-04T21:38:53.029Z,4.35
2018-06-04T21:41:21.449Z,5.00
2018-06-04T21:43:49.890Z,4.50
2018-06-04T21:46:18.308Z,4.42
2018-06-04T21:48:48.103Z,5.00
2018-06-04T21:51:16.785Z,4.75
2018-06-04T21:53:45.218Z,4.50
2018-06-04T21:56:13.680Z,4.47
2018-06-04T21:58:42.116Z,4.53
2018-06-04T22:01:10.529Z,4.92
2018-06-04T22:03:38.712Z,4.83
2018-06-04T22:06:07.148Z,5.50
2018-06-04T22:08:35.561Z,5.25
2018-06-04T22:11:04.007Z,4.60
2018-06-04T22:13:32.400Z,4.50
2018-06-04T22:16:00.850Z,4.58
2018-06-04T22:18:29.260Z,5.12
2018-06-04T22:20:57.908Z,4.65
2018-06-04T22:23:26.320Z,5.25
2018-06-04T22:25:54.780Z,4.67
2018-06-04T22:28:23.182Z,5.10
2018-06-04T22:30:51.636Z,4.72
2018-06-04T22:33:20.069Z,4.80
2018-06-04T22:35:48.481Z,5.40
2018-06-04T22:38:16.944Z,4.58
2018-06-04T22:40:45.342Z,5.00
2018-06-04T22:43:13.768Z,4.83
2018-06-04T22:45:42.200Z,4.30
2018-06-04T22:48:10.628Z,4.42
2018-06-04T22:50:38.779Z,5.08
2018-06-04T22:53:07.212Z,5.70
2018-06-04T22:55:35.653Z,5.40
2018-06-04T22:58:03.792Z,4.80
2018-06-04T23:00:34.027Z,5.12
2018-06-04T23:03:02.601Z,5.17
2018-06-04T23:05:31.024Z,4.78
2018-06-04T23:07:59.505Z,5.20
2018-06-04T23:10:27.922Z,5.12
2018-06-04T23:12:56.408Z,5.12
2018-06-04T23:15:24.817Z,4.70
2018-06-04T23:17:53.252Z,4.30
2018-06-04T23:20:21.661Z,4.85
2018-06-04T23:22:50.123Z,4.75
2018-06-04T23:25:18.572Z,4.45
2018-06-04T23:27:46.989Z,3.95
2018-06-04T23:30:15.466Z,4.10
2018-06-04T23:32:43.885Z,4.10
2018-06-04T23:35:12.320Z,4.37
2018-06-04T23:37:40.428Z,4.83
2018-06-04T23:40:08.872Z,3.98
2018-06-04T23:42:37.361Z,3.60
2018-06-04T23:45:05.809Z,3.77
2018-06-04T23:47:33.900Z,3.70
2018-06-04T23:50:02.372Z,3.95
2018-06-04T23:52:30.773Z,3.65
2018-06-04T23:54:59.254Z,3.65
2018-06-04T23:57:27.769Z,3.50
2018-06-04T23:59:56.216Z,4.15
